Time;durP1;ratioP1;P1;durP2;ratioP2;P2;SDS_P1;SDS_P2;PMS_P1;PMS_P2;Temp;Humidity;BMP_temperature;BMP_pressure;BME280_temperature;BME280_humidity;BME280_pressure;Samples;Min_cycle;Max_cycle;Signal;HPM_P1;HPM_P2
2023/08/05 00:00:24;;;;;;;5.85;2.58;;;15.40;73.90;;;;;;5070569;28;20083;-72
2023/08/05 00:02:51;;;;;;;4.63;2.17;;;15.40;74.00;;;;;;5052435;28;20045;-72
2023/08/05 00:05:18;;;;;;;6.97;2.40;;;15.40;74.10;;;;;;5052465;28;20057;-72
2023/08/05 00:07:46;;;;;;;7.93;2.65;;;15.30;74.30;;;;;;5052695;28;20049;-72
2023/08/05 00:10:13;;;;;;;6.43;2.22;;;15.30;74.50;;;;;;5086634;28;20046;-72
2023/08/05 00:12:40;;;;;;;6.18;2.40;;;15.20;74.50;;;;;;5051749;28;20053;-72
2023/08/05 00:15:08;;;;;;;6.90;2.53;;;15.20;74.70;;;;;;5052639;28;20053;-72
2023/08/05 00:17:35;;;;;;;8.30;2.20;;;15.20;74.80;;;;;;5070946;28;20057;-72
2023/08/05 00:20:03;;;;;;;4.70;2.30;;;15.20;75.00;;;;;;5052225;28;20049;-73
2023/08/05 00:22:30;;;;;;;7.15;2.28;;;15.10;75.10;;;;;;5070612;28;20049;-72
2023/08/05 00:24:58;;;;;;;5.88;2.40;;;15.10;75.20;;;;;;5086176;28;20485;-72
2023/08/05 00:27:25;;;;;;;6.32;2.50;;;15.10;75.30;;;;;;5052536;28;20136;-73
2023/08/05 00:29:53;;;;;;;7.47;2.33;;;15.00;75.30;;;;;;5067538;28;20739;-72
2023/08/05 00:32:20;;;;;;;5.30;2.08;;;15.10;75.50;;;;;;5064867;28;20053;-72
2023/08/05 00:34:47;;;;;;;6.15;2.38;;;15.00;75.50;;;;;;5052238;28;20430;-72
2023/08/05 00:37:14;;;;;;;5.07;2.13;;;15.00;75.50;;;;;;5051723;28;20470;-72
2023/08/05 00:39:41;;;;;;;6.20;2.35;;;15.00;75.70;;;;;;5048389;28;20511;-72
2023/08/05 00:42:10;;;;;;;4.90;1.93;;;15.00;75.80;;;;;;5058300;28;20056;-72
2023/08/05 00:44:37;;;;;;;5.07;1.95;;;15.00;75.90;;;;;;5069568;28;20045;-72
2023/08/05 00:47:04;;;;;;;4.70;2.03;;;15.00;75.90;;;;;;5068861;28;20176;-72
2023/08/05 00:49:32;;;;;;;6.80;2.60;;;15.00;76.10;;;;;;5068402;28;20088;-72
2023/08/05 00:51:59;;;;;;;6.85;2.28;;;15.00;76.20;;;;;;5070114;28;20060;-72
2023/08/05 00:54:27;;;;;;;6.43;2.07;;;15.00;76.30;;;;;;5052240;28;20053;-72
2023/08/05 00:56:54;;;;;;;9.25;2.50;;;15.00;76.40;;;;;;5070915;28;20052;-73
2023/08/05 00:59:23;;;;;;;5.85;2.45;;;15.00;76.40;;;;;;5085706;28;20487;-73
2023/08/05 01:01:49;;;;;;;5.90;2.30;;;15.00;76.50;;;;;;5068243;28;20086;-72
2023/08/05 01:04:16;;;;;;;6.20;2.13;;;15.00;76.40;;;;;;5068446;28;20487;-72
2023/08/05 01:06:45;;;;;;;7.87;2.27;;;15.00;76.40;;;;;;5067363;28;20045;-72
2023/08/05 01:09:12;;;;;;;5.45;2.30;;;15.00;76.40;;;;;;5058752;28;20132;-72
2023/08/05 01:11:39;;;;;;;8.50;2.55;;;15.00;76.40;;;;;;5051289;28;20045;-72
2023/08/05 01:14:06;;;;;;;5.60;2.40;;;15.00;76.50;;;;;;5039647;28;20053;-72
2023/08/05 01:16:34;;;;;;;5.70;2.00;;;15.00;76.60;;;;;;5039251;28;20057;-73
2023/08/05 01:19:04;;;;;;;4.50;1.90;;;15.00;76.50;;;;;;5051286;28;20146;-72
2023/08/05 01:21:36;;;;;;;5.38;2.08;;;15.00;76.60;;;;;;5050950;28;20148;-72
2023/08/05 01:24:11;;;;;;;4.90;1.90;;;15.00;76.60;;;;;;5083879;28;20057;-72
2023/08/05 01:26:40;;;;;;;5.57;2.08;;;15.00;76.70;;;;;;5051382;28;20487;-72
2023/08/05 01:29:08;;;;;;;5.47;2.13;;;15.00;76.70;;;;;;5050988;28;20045;-72
2023/08/05 01:31:36;;;;;;;5.87;2.13;;;15.00;76.70;;;;;;5056833;28;20073;-72
2023/08/05 01:34:04;;;;;;;6.38;2.20;;;15.00;76.70;;;;;;5069469;28;20053;-72
2023/08/05 01:36:31;;;;;;;7.65;3.00;;;15.00;76.70;;;;;;5057501;28;20179;-72
2023/08/05 01:38:58;;;;;;;7.90;2.95;;;15.00;76.80;;;;;;5051256;28;20041;-72
2023/08/05 01:41:25;;;;;;;7.60;2.85;;;14.90;76.50;;;;;;5066467;28;20537;-72
2023/08/05 01:43:53;;;;;;;8.60;3.00;;;14.90;76.40;;;;;;5068353;28;20082;-72
2023/08/05 01:46:20;;;;;;;6.60;2.70;;;14.80;76.40;;;;;;5069356;28;20120;-72
2023/08/05 01:48:47;;;;;;;6.63;2.90;;;14.70;76.60;;;;;;5069522;28;20049;-72
2023/08/05 01:51:14;;;;;;;6.95;2.60;;;14.60;76.50;;;;;;5069003;28;20459;-72
2023/08/05 01:53:41;;;;;;;7.18;2.78;;;14.60;76.60;;;;;;5084438;28;20499;-72
2023/08/05 01:56:09;;;;;;;6.70;2.80;;;14.50;76.70;;;;;;5051014;28;20049;-72
2023/08/05 01:58:36;;;;;;;7.95;2.90;;;14.50;76.90;;;;;;5066136;28;20053;-72
2023/08/05 02:01:04;;;;;;;6.40;2.72;;;14.40;77.00;;;;;;5067505;28;20067;-72
2023/08/05 02:03:31;;;;;;;5.20;2.67;;;14.40;77.20;;;;;;5051016;28;20152;-72
2023/08/05 02:05:58;;;;;;;6.88;2.55;;;14.40;77.20;;;;;;5068498;28;20064;-72
2023/08/05 02:08:25;;;;;;;7.97;2.87;;;14.40;77.20;;;;;;5034170;28;20052;-72
2023/08/05 02:10:52;;;;;;;5.95;2.83;;;14.40;77.20;;;;;;5067628;28;20177;-72
2023/08/05 02:13:18;;;;;;;7.88;2.78;;;14.40;77.20;;;;;;5067607;28;20124;-72
2023/08/05 02:15:45;;;;;;;6.20;2.83;;;14.50;77.20;;;;;;5048998;28;20072;-72
2023/08/05 02:18:14;;;;;;;6.10;2.55;;;14.40;77.20;;;;;;5068047;28;20045;-72
2023/08/05 02:20:40;;;;;;;7.30;2.50;;;14.40;77.00;;;;;;5050124;28;20045;-72
2023/08/05 02:23:08;;;;;;;5.95;2.42;;;14.40;77.00;;;;;;5067836;28;20059;-72
2023/08/05 02:25:35;;;;;;;6.78;2.38;;;14.40;76.90;;;;;;5068917;28;20150;-72
2023/08/05 02:28:02;;;;;;;6.85;2.40;;;14.30;77.10;;;;;;5084358;28;20060;-72
2023/08/05 02:30:31;;;;;;;5.07;2.00;;;14.30;77.10;;;;;;5068587;28;20053;-72
2023/08/05 02:32:58;;;;;;;5.50;2.30;;;14.30;77.10;;;;;;5066053;28;20059;-72
2023/08/05 02:35:26;;;;;;;6.88;2.40;;;14.30;77.20;;;;;;5067520;28;20055;-72
2023/08/05 02:37:55;;;;;;;5.72;2.47;;;14.30;77.10;;;;;;5050375;28;20160;-72
2023/08/05 02:40:21;;;;;;;5.85;2.03;;;14.30;77.00;;;;;;5084643;28;20163;-72
2023/08/05 02:42:48;;;;;;;4.93;2.33;;;14.30;76.90;;;;;;5055704;28;20055;-73
2023/08/05 02:45:15;;;;;;;5.83;2.50;;;14.30;76.80;;;;;;5050577;28;20049;-72
2023/08/05 02:47:42;;;;;;;6.05;2.40;;;14.30;76.70;;;;;;5083733;28;20370;-73
2023/08/05 02:50:10;;;;;;;6.45;2.70;;;14.30;76.70;;;;;;5082274;28;20056;-72
2023/08/05 02:52:39;;;;;;;4.68;1.88;;;14.30;76.80;;;;;;5083198;28;20112;-72
2023/08/05 02:55:06;;;;;;;4.63;2.13;;;14.30;76.80;;;;;;5052083;28;20049;-72
2023/08/05 02:57:33;;;;;;;5.50;1.97;;;14.20;76.70;;;;;;5050374;28;20206;-72
2023/08/05 03:00:00;;;;;;;5.35;1.85;;;14.20;76.70;;;;;;5068591;28;20483;-72
2023/08/05 03:02:27;;;;;;;5.07;2.40;;;14.20;76.70;;;;;;5066159;28;20061;-73
2023/08/05 03:04:54;;;;;;;6.55;2.42;;;14.10;76.70;;;;;;5050409;28;20048;-72
2023/08/05 03:07:21;;;;;;;6.45;2.10;;;14.10;76.90;;;;;;5082385;28;20045;-72
2023/08/05 03:09:50;;;;;;;4.07;1.47;;;14.10;76.90;;;;;;5068413;28;20148;-72
2023/08/05 03:12:18;;;;;;;4.53;1.00;;;14.10;77.00;;;;;;5033376;28;20529;-72
2023/08/05 03:14:45;;;;;;;3.97;0.88;;;14.00;76.90;;;;;;5049850;28;20574;-72
2023/08/05 03:17:12;;;;;;;3.53;1.20;;;14.00;76.90;;;;;;5051764;28;20609;-72
2023/08/05 03:19:39;;;;;;;5.70;2.10;;;13.90;76.80;;;;;;5067131;28;20049;-72
2023/08/05 03:22:07;;;;;;;5.17;1.87;;;13.90;76.90;;;;;;5082288;28;20069;-72
2023/08/05 03:24:35;;;;;;;5.18;2.28;;;13.90;77.00;;;;;;5064037;28;20053;-72
2023/08/05 03:27:04;;;;;;;5.60;2.05;;;13.90;77.10;;;;;;5082074;28;20056;-72
2023/08/05 03:29:31;;;;;;;7.07;2.00;;;13.90;77.30;;;;;;5047998;28;20057;-72
2023/08/05 03:31:59;;;;;;;3.83;1.70;;;13.90;77.30;;;;;;5067318;28;20045;-72
2023/08/05 03:34:26;;;;;;;4.10;1.50;;;13.90;77.50;;;;;;5065298;28;20049;-72
2023/08/05 03:36:56;;;;;;;4.43;1.38;;;13.90;77.50;;;;;;5058837;28;20072;-72
2023/08/05 03:39:23;;;;;;;4.43;1.73;;;13.90;77.70;;;;;;5049766;28;20056;-72
2023/08/05 03:41:50;;;;;;;4.68;1.98;;;13.90;77.80;;;;;;5065549;28;20045;-72
2023/08/05 03:44:18;;;;;;;4.25;2.08;;;13.80;78.00;;;;;;5083278;28;20490;-72
2023/08/05 03:46:46;;;;;;;5.83;2.30;;;13.80;78.10;;;;;;5065673;28;20700;-72
2023/08/05 03:49:13;;;;;;;5.15;2.17;;;13.90;78.10;;;;;;5090029;28;20071;-72
2023/08/05 03:51:40;;;;;;;6.45;2.40;;;13.80;78.10;;;;;;5056132;28;20175;-72
2023/08/05 03:54:08;;;;;;;7.32;2.67;;;13.70;78.20;;;;;;5083133;28;20053;-72
2023/08/05 03:56:36;;;;;;;6.63;2.60;;;13.70;78.50;;;;;;5033084;28;20061;-72
2023/08/05 03:59:04;;;;;;;8.10;3.13;;;13.70;78.70;;;;;;5064670;28;20083;-72
2023/08/05 04:01:34;;;;;;;5.93;2.50;;;13.70;78.70;;;;;;5032336;28;20049;-72
2023/08/05 04:04:01;;;;;;;6.43;2.55;;;13.70;78.80;;;;;;5066119;28;20634;-72
2023/08/05 04:06:29;;;;;;;7.70;2.90;;;13.70;79.00;;;;;;5051449;28;20103;-72
2023/08/05 04:08:56;;;;;;;6.30;2.80;;;13.70;79.00;;;;;;5049209;28;20778;-72
2023/08/05 04:11:23;;;;;;;6.03;2.63;;;13.70;79.20;;;;;;5058957;28;20053;-72
2023/08/05 04:13:52;;;;;;;6.43;3.40;;;13.70;79.50;;;;;;5050686;28;20044;-72
2023/08/05 04:16:21;;;;;;;7.40;3.22;;;13.70;79.60;;;;;;5081237;28;20051;-72
2023/08/05 04:18:52;;;;;;;7.47;3.15;;;13.70;79.60;;;;;;5089432;28;20171;-72
2023/08/05 04:21:23;;;;;;;6.45;3.20;;;13.70;79.60;;;;;;5057687;28;20504;-72
2023/08/05 04:23:50;;;;;;;6.60;3.00;;;13.70;79.60;;;;;;5055815;28;20501;-71
2023/08/05 04:26:17;;;;;;;6.43;3.00;;;13.70;79.70;;;;;;5035329;28;20042;-73
2023/08/05 04:28:44;;;;;;;9.98;3.42;;;13.70;79.90;;;;;;5070682;28;20045;-72
2023/08/05 04:31:11;;;;;;;7.43;3.10;;;13.80;80.00;;;;;;5068876;28;20049;-72
2023/08/05 04:33:38;;;;;;;7.07;3.15;;;13.80;80.00;;;;;;5068899;28;20045;-72
2023/08/05 04:36:06;;;;;;;6.60;3.03;;;13.80;80.00;;;;;;5070257;28;20140;-72
2023/08/05 04:38:33;;;;;;;7.25;3.05;;;13.80;80.00;;;;;;5070845;28;20423;-72
2023/08/05 04:41:01;;;;;;;5.97;3.45;;;13.90;80.00;;;;;;5085661;28;20053;-72
2023/08/05 04:43:28;;;;;;;7.57;3.30;;;13.90;80.00;;;;;;5100223;28;20632;-72
2023/08/05 04:45:55;;;;;;;6.97;3.25;;;13.90;80.00;;;;;;5062457;28;20095;-72
2023/08/05 04:48:22;;;;;;;7.87;3.23;;;13.90;80.10;;;;;;5051905;28;20061;-72
2023/08/05 04:50:48;;;;;;;8.18;3.42;;;13.90;80.10;;;;;;5068532;28;20072;-72
2023/08/05 04:53:17;;;;;;;8.43;3.50;;;13.90;80.00;;;;;;5052452;28;20496;-72
2023/08/05 04:55:44;;;;;;;7.25;3.10;;;13.90;80.10;;;;;;5051750;28;20051;-72
2023/08/05 04:58:11;;;;;;;7.57;3.45;;;14.00;80.10;;;;;;5051906;28;20068;-72
2023/08/05 05:00:38;;;;;;;6.30;2.97;;;13.90;80.10;;;;;;5070190;28;20059;-72
2023/08/05 05:03:07;;;;;;;6.82;3.25;;;13.90;80.10;;;;;;5070169;28;21023;-72
2023/08/05 05:05:35;;;;;;;6.35;3.50;;;13.90;80.00;;;;;;5077534;28;20048;-72
2023/08/05 05:08:02;;;;;;;7.43;3.40;;;14.00;80.20;;;;;;5050670;28;20048;-72
2023/08/05 05:10:30;;;;;;;7.88;3.50;;;14.00;80.30;;;;;;5051780;28;20300;-72
2023/08/05 05:12:58;;;;;;;9.50;3.63;;;14.00;80.40;;;;;;5085630;28;20439;-72
2023/08/05 05:15:25;;;;;;;7.40;3.47;;;14.00;80.70;;;;;;5051752;28;20052;-72
2023/08/05 05:17:52;;;;;;;6.88;3.40;;;14.00;80.90;;;;;;5069511;28;20132;-72
2023/08/05 05:20:19;;;;;;;7.22;3.30;;;14.00;80.90;;;;;;5062347;28;20052;-72
2023/08/05 05:22:46;;;;;;;6.10;3.15;;;14.00;81.20;;;;;;5051364;28;20124;-72
2023/08/05 05:25:12;;;;;;;9.23;3.40;;;14.00;81.40;;;;;;5049630;28;20554;-72
2023/08/05 05:27:41;;;;;;;8.60;3.22;;;14.00;81.50;;;;;;5068411;28;20045;-72
2023/08/05 05:30:09;;;;;;;7.95;3.35;;;14.10;81.60;;;;;;5069997;28;20056;-72
2023/08/05 05:32:36;;;;;;;7.40;3.38;;;14.10;81.70;;;;;;5069159;28;20049;-72
2023/08/05 05:35:03;;;;;;;6.80;3.20;;;14.10;81.70;;;;;;5069444;28;20051;-72
2023/08/05 05:37:30;;;;;;;10.50;3.73;;;14.10;81.60;;;;;;5069694;28;20053;-72
2023/08/05 05:39:57;;;;;;;6.10;2.78;;;14.10;81.80;;;;;;5051315;28;20060;-72
2023/08/05 05:42:24;;;;;;;6.35;2.92;;;14.20;81.70;;;;;;5049978;28;20471;-72
2023/08/05 05:44:53;;;;;;;6.32;2.90;;;14.20;81.80;;;;;;5051416;28;20072;-72
2023/08/05 05:47:20;;;;;;;6.05;2.92;;;14.20;81.80;;;;;;5051144;28;20045;-72
2023/08/05 05:49:47;;;;;;;7.10;2.80;;;14.20;81.70;;;;;;5050979;28;20566;-72
2023/08/05 05:52:16;;;;;;;6.55;2.47;;;14.20;81.80;;;;;;5069153;28;20072;-72
2023/08/05 05:54:43;;;;;;;6.43;2.88;;;14.30;81.70;;;;;;5084129;28;20056;-72
2023/08/05 05:57:10;;;;;;;6.43;2.60;;;14.30;81.70;;;;;;5050744;28;20573;-71
2023/08/05 05:59:38;;;;;;;6.63;2.70;;;14.30;81.80;;;;;;5049024;28;20576;-72
2023/08/05 06:02:08;;;;;;;5.83;2.40;;;14.40;81.80;;;;;;5050234;28;20119;-72
2023/08/05 06:04:35;;;;;;;6.00;2.80;;;14.40;81.80;;;;;;5050803;28;20052;-72
2023/08/05 06:07:02;;;;;;;7.60;2.90;;;14.40;81.70;;;;;;5050826;28;20076;-72
2023/08/05 06:09:31;;;;;;;7.95;2.90;;;14.40;81.80;;;;;;5051318;28;20045;-72
2023/08/05 06:11:58;;;;;;;5.78;2.58;;;14.50;81.90;;;;;;5050131;28;20056;-72
2023/08/05 06:14:25;;;;;;;6.43;2.67;;;14.50;81.90;;;;;;5050221;28;20685;-72
2023/08/05 06:16:52;;;;;;;7.22;2.60;;;14.50;82.00;;;;;;5080131;28;20057;-72
2023/08/05 06:19:20;;;;;;;5.50;2.53;;;14.50;82.00;;;;;;5068820;28;20148;-72
2023/08/05 06:21:47;;;;;;;5.13;2.22;;;14.60;82.20;;;;;;5050450;28;20167;-72
2023/08/05 06:24:14;;;;;;;6.75;2.80;;;14.60;82.10;;;;;;5050237;28;20049;-72
2023/08/05 06:26:41;;;;;;;5.20;2.37;;;14.70;82.10;;;;;;5051823;28;20049;-72
2023/08/05 06:29:08;;;;;;;4.60;1.95;;;14.70;82.10;;;;;;5068688;28;20053;-72
2023/08/05 06:31:35;;;;;;;6.85;2.35;;;14.80;82.00;;;;;;5050020;28;20177;-72
2023/08/05 06:34:02;;;;;;;5.53;2.08;;;14.80;82.10;;;;;;5035273;28;20581;-72
2023/08/05 06:36:30;;;;;;;5.53;2.53;;;14.90;82.00;;;;;;5064716;28;20131;-72
2023/08/05 06:38:57;;;;;;;7.53;2.60;;;14.90;82.10;;;;;;5067285;28;20640;-72
2023/08/05 06:41:24;;;;;;;6.53;2.50;;;15.00;82.00;;;;;;5047847;28;20167;-72
2023/08/05 06:43:51;;;;;;;5.03;2.30;;;15.00;81.50;;;;;;5066888;28;20059;-72
2023/08/05 06:46:19;;;;;;;6.10;2.30;;;15.00;81.40;;;;;;5049573;28;20051;-71
2023/08/05 06:48:46;;;;;;;5.80;2.05;;;15.00;81.30;;;;;;5067836;28;20195;-72
2023/08/05 06:51:13;;;;;;;4.73;2.60;;;15.10;81.30;;;;;;5045530;28;20162;-71
2023/08/05 06:53:44;;;;;;;4.82;2.10;;;15.20;81.30;;;;;;5051043;28;20047;-71
2023/08/05 06:56:11;;;;;;;7.18;2.75;;;15.20;81.30;;;;;;5066844;28;20060;-71
2023/08/05 06:58:38;;;;;;;6.50;2.50;;;15.20;81.30;;;;;;5048401;28;20475;-71
2023/08/05 07:01:05;;;;;;;6.78;2.72;;;15.30;81.40;;;;;;5066061;28;21155;-71
2023/08/05 07:03:32;;;;;;;5.57;2.50;;;15.30;81.40;;;;;;5047995;28;20056;-71
2023/08/05 07:05:59;;;;;;;7.57;2.55;;;15.30;81.50;;;;;;5047014;28;20488;-71
2023/08/05 07:08:28;;;;;;;5.53;2.38;;;15.40;81.40;;;;;;5047159;28;20041;-72
2023/08/05 07:10:57;;;;;;;6.35;2.38;;;15.40;81.30;;;;;;5080146;28;20060;-73
2023/08/05 07:13:24;;;;;;;7.43;2.28;;;15.40;81.30;;;;;;5049442;28;20037;-72
2023/08/05 07:15:51;;;;;;;6.33;2.43;;;15.50;81.30;;;;;;5067660;28;20151;-72
2023/08/05 07:18:18;;;;;;;5.45;2.10;;;15.50;81.40;;;;;;5057189;28;20060;-73
2023/08/05 07:20:46;;;;;;;6.18;2.30;;;15.50;81.30;;;;;;5043952;28;20049;-73
2023/08/05 07:23:13;;;;;;;5.82;2.20;;;15.60;81.30;;;;;;5046921;28;20052;-73
2023/08/05 07:25:40;;;;;;;6.55;2.30;;;15.60;81.30;;;;;;5048981;28;20163;-73
2023/08/05 07:28:08;;;;;;;7.27;2.63;;;15.60;81.30;;;;;;5049705;28;20077;-72
2023/08/05 07:30:35;;;;;;;4.63;2.30;;;15.60;81.30;;;;;;5062337;28;20140;-72
2023/08/05 07:33:04;;;;;;;7.70;2.58;;;15.60;81.30;;;;;;5046606;28;20049;-73
2023/08/05 07:35:32;;;;;;;6.50;2.58;;;15.70;81.30;;;;;;5066929;28;20063;-74
2023/08/05 07:38:01;;;;;;;6.43;2.60;;;15.80;81.30;;;;;;5067391;28;20056;-73
2023/08/05 07:40:29;;;;;;;6.83;2.63;;;15.80;81.40;;;;;;5067613;28;20052;-73
2023/08/05 07:42:56;;;;;;;8.73;2.70;;;15.80;81.40;;;;;;5064055;28;20132;-72
2023/08/05 07:45:26;;;;;;;6.95;2.95;;;15.80;81.40;;;;;;5066736;28;20429;-72
2023/08/05 07:47:55;;;;;;;6.32;2.72;;;15.90;81.20;;;;;;5083456;28;20056;-73
2023/08/05 07:50:22;;;;;;;7.22;2.58;;;16.00;81.10;;;;;;5043274;28;20454;-73
2023/08/05 07:52:51;;;;;;;8.53;2.53;;;16.00;81.00;;;;;;5046385;28;20052;-74
2023/08/05 07:55:18;;;;;;;7.30;2.63;;;16.00;81.00;;;;;;5052552;28;20500;-74
2023/08/05 07:57:46;;;;;;;6.22;2.30;;;16.00;80.80;;;;;;5080861;28;20944;-73
2023/08/05 08:00:13;;;;;;;5.95;2.40;;;16.00;80.70;;;;;;5070398;28;20052;-73
2023/08/05 08:02:44;;;;;;;6.00;2.38;;;16.10;80.70;;;;;;5066970;28;20044;-74
2023/08/05 08:05:13;;;;;;;5.33;2.47;;;16.10;80.50;;;;;;5072072;28;20049;-71
2023/08/05 08:07:45;;;;;;;5.28;2.03;;;16.10;80.40;;;;;;5067798;28;20059;-72
2023/08/05 08:10:12;;;;;;;8.43;2.83;;;16.20;80.30;;;;;;5069722;28;20044;-72
2023/08/05 08:12:39;;;;;;;8.32;2.60;;;16.20;80.30;;;;;;5053490;28;20479;-72
2023/08/05 08:15:07;;;;;;;5.20;2.08;;;16.20;80.20;;;;;;5065869;28;20045;-72
2023/08/05 08:17:34;;;;;;;6.63;2.30;;;16.20;80.30;;;;;;5067408;28;20881;-72
2023/08/05 08:20:03;;;;;;;5.28;2.22;;;16.30;80.30;;;;;;5032503;28;20136;-72
2023/08/05 08:22:31;;;;;;;6.70;2.50;;;16.40;80.30;;;;;;5053479;28;20049;-73
2023/08/05 08:24:59;;;;;;;6.35;2.35;;;16.40;79.50;;;;;;5075549;28;20072;-72
2023/08/05 08:27:27;;;;;;;6.53;2.45;;;16.40;79.10;;;;;;5041712;28;20056;-72
2023/08/05 08:29:55;;;;;;;6.53;2.20;;;16.50;79.00;;;;;;5073951;28;20049;-72
2023/08/05 08:32:22;;;;;;;4.82;1.90;;;16.50;78.80;;;;;;5055509;28;20056;-73
2023/08/05 08:34:49;;;;;;;5.95;1.95;;;16.50;78.70;;;;;;5053291;28;20479;-73
2023/08/05 08:37:17;;;;;;;5.07;2.35;;;16.50;78.70;;;;;;5036144;28;20049;-73
2023/08/05 08:39:45;;;;;;;4.20;1.75;;;16.60;78.60;;;;;;5080916;28;20598;-73
2023/08/05 08:42:12;;;;;;;5.30;2.00;;;16.70;78.30;;;;;;5066819;28;20128;-74
2023/08/05 08:44:41;;;;;;;4.20;1.75;;;16.70;78.10;;;;;;5049710;28;20156;-73
2023/08/05 08:47:08;;;;;;;5.63;2.00;;;16.70;78.00;;;;;;5049978;28;20045;-72
2023/08/05 08:49:37;;;;;;;5.93;2.00;;;16.80;77.90;;;;;;5068230;28;20596;-72
2023/08/05 08:52:06;;;;;;;5.32;2.00;;;16.80;77.90;;;;;;5053446;28;20530;-73
2023/08/05 08:54:36;;;;;;;4.83;1.83;;;16.80;77.90;;;;;;5055884;28;20150;-75
2023/08/05 08:57:03;;;;;;;5.75;1.80;;;16.90;77.60;;;;;;5048298;28;20041;-74
2023/08/05 08:59:30;;;;;;;6.22;2.00;;;16.90;77.20;;;;;;5049902;28;20087;-73
2023/08/05 09:01:58;;;;;;;5.93;1.98;;;17.00;77.10;;;;;;5069148;28;20596;-73
2023/08/05 09:04:31;;;;;;;5.00;1.90;;;17.00;76.80;;;;;;5049035;28;20522;-73
2023/08/05 09:06:59;;;;;;;5.00;1.90;;;17.00;76.80;;;;;;5078541;28;20271;-73
2023/08/05 09:09:26;;;;;;;4.82;1.80;;;17.10;76.70;;;;;;5055676;28;20137;-75
2023/08/05 09:11:55;;;;;;;5.20;1.70;;;17.20;75.90;;;;;;5068294;28;20958;-74
2023/08/05 09:14:23;;;;;;;5.53;1.73;;;17.20;75.50;;;;;;5065239;28;20120;-74
2023/08/05 09:16:58;;;;;;;6.85;1.83;;;17.20;75.00;;;;;;5047844;28;20037;-72
2023/08/05 09:19:26;;;;;;;4.30;1.50;;;17.30;75.20;;;;;;5047595;28;20052;-73
2023/08/05 09:21:53;;;;;;;5.68;1.88;;;17.30;74.90;;;;;;5048738;28;20107;-72
2023/08/05 09:24:24;;;;;;;4.32;1.50;;;17.40;74.70;;;;;;5068665;28;20049;-73
2023/08/05 09:26:57;;;;;;;4.93;1.83;;;17.40;74.80;;;;;;5049081;28;20052;-73
2023/08/05 09:29:25;;;;;;;5.20;1.48;;;17.50;75.00;;;;;;5083528;28;20135;-73
2023/08/05 09:32:00;;;;;;;6.77;1.97;;;17.50;75.40;;;;;;5074198;28;20049;-73
2023/08/05 09:34:35;;;;;;;4.18;1.80;;;17.50;75.70;;;;;;5070974;28;20080;-74
2023/08/05 09:37:03;;;;;;;4.57;1.58;;;17.60;75.00;;;;;;5037122;28;20048;-74
2023/08/05 09:39:44;;;;;;;4.35;1.60;;;17.60;74.40;;;;;;5067588;28;20577;-73
2023/08/05 09:42:22;;;;;;;3.78;1.80;;;17.70;74.60;;;;;;5072369;28;20060;-73
2023/08/05 09:44:52;;;;;;;3.90;1.60;;;17.80;74.20;;;;;;5065007;28;20462;-73
2023/08/05 09:47:23;;;;;;;5.30;1.80;;;17.80;73.70;;;;;;5086882;28;20198;-73
2023/08/05 09:49:51;;;;;;;6.82;1.83;;;17.90;73.70;;;;;;5068636;28;20135;-74
2023/08/05 09:52:20;;;;;;;4.20;1.60;;;18.00;73.00;;;;;;5064532;28;20059;-74
2023/08/05 09:54:53;;;;;;;4.93;1.65;;;18.00;72.10;;;;;;5063809;28;20380;-74
2023/08/05 09:57:21;;;;;;;3.90;1.50;;;18.00;71.90;;;;;;5035812;28;20049;-73
2023/08/05 09:59:50;;;;;;;5.43;1.70;;;18.10;71.90;;;;;;5045406;28;20489;-73
2023/08/05 10:02:23;;;;;;;6.07;1.73;;;18.20;71.10;;;;;;5039748;28;20041;-73
2023/08/05 10:04:53;;;;;;;4.15;1.50;;;18.20;71.50;;;;;;5047844;28;20055;-73
2023/08/05 10:07:22;;;;;;;4.20;1.63;;;18.20;72.10;;;;;;5067488;28;20878;-73
2023/08/05 10:09:49;;;;;;;4.57;1.50;;;18.30;71.50;;;;;;5063989;28;20498;-74
2023/08/05 10:12:19;;;;;;;5.18;1.90;;;18.40;71.60;;;;;;5085476;28;20045;-74
2023/08/05 10:14:48;;;;;;;4.43;1.73;;;18.40;71.00;;;;;;5066550;28;20047;-73
2023/08/05 10:17:16;;;;;;;4.20;1.80;;;18.50;71.20;;;;;;5068432;28;20617;-74
2023/08/05 10:19:46;;;;;;;6.18;1.95;;;18.50;71.30;;;;;;5047629;28;20486;-74
2023/08/05 10:22:13;;;;;;;4.70;1.80;;;18.50;71.20;;;;;;5055278;28;20131;-74
2023/08/05 10:24:54;;;;;;;6.15;1.98;;;18.60;71.50;;;;;;5060086;28;20103;-73
2023/08/05 10:27:34;;;;;;;4.30;1.88;;;18.70;71.60;;;;;;5052803;28;20126;-73
2023/08/05 10:30:11;;;;;;;4.78;1.90;;;18.70;71.40;;;;;;5073770;28;20054;-73
2023/08/05 10:32:50;;;;;;;4.20;1.83;;;18.80;71.40;;;;;;5058578;28;20056;-72
2023/08/05 10:35:31;;;;;;;3.70;1.70;;;18.90;71.50;;;;;;5073007;28;20546;-73
2023/08/05 10:38:13;;;;;;;4.20;2.00;;;19.00;71.90;;;;;;5067017;28;20063;-73
2023/08/05 10:40:45;;;;;;;5.68;1.92;;;19.00;71.40;;;;;;5081721;28;20049;-73
2023/08/05 10:43:26;;;;;;;3.97;1.80;;;19.10;70.30;;;;;;5070331;28;20044;-73
2023/08/05 10:45:55;;;;;;;5.80;2.15;;;19.20;70.70;;;;;;5043533;28;20045;-75
2023/08/05 10:48:28;;;;;;;5.80;2.30;;;19.20;71.40;;;;;;5078415;28;20045;-76
2023/08/05 10:50:56;;;;;;;6.00;2.10;;;19.30;72.00;;;;;;5081711;28;20055;-76
2023/08/05 10:53:23;;;;;;;4.88;1.98;;;19.40;71.80;;;;;;5062839;28;20166;-76
2023/08/05 10:55:51;;;;;;;5.35;2.60;;;19.40;71.90;;;;;;5066995;28;20052;-74
2023/08/05 10:58:24;;;;;;;7.00;2.90;;;19.50;71.20;;;;;;5049881;28;20055;-75
2023/08/05 11:01:00;;;;;;;5.33;2.70;;;19.50;71.10;;;;;;5066077;28;20072;-75
2023/08/05 11:03:31;;;;;;;7.00;3.00;;;19.60;70.70;;;;;;5051805;28;20045;-75
2023/08/05 11:06:03;;;;;;;4.97;2.60;;;19.50;70.70;;;;;;5058989;28;20103;-75
2023/08/05 11:08:31;;;;;;;5.95;2.80;;;19.60;70.00;;;;;;5046440;28;20087;-76
2023/08/05 11:11:02;;;;;;;6.50;2.90;;;19.60;70.60;;;;;;5048433;28;20136;-76
2023/08/05 11:13:33;;;;;;;7.20;3.00;;;19.70;70.90;;;;;;5059388;28;20049;-75
2023/08/05 11:16:05;;;;;;;5.72;2.65;;;19.70;70.90;;;;;;5049896;28;20079;-75
2023/08/05 11:18:32;;;;;;;6.00;2.90;;;19.70;70.70;;;;;;5059025;28;20495;-75
2023/08/05 11:21:00;;;;;;;6.05;2.50;;;19.70;69.50;;;;;;5033153;28;20061;-75
2023/08/05 11:23:28;;;;;;;4.93;2.65;;;19.70;69.00;;;;;;5065705;28;20573;-75
2023/08/05 11:25:55;;;;;;;4.27;2.10;;;19.70;68.90;;;;;;5071421;28;21012;-75
2023/08/05 11:28:22;;;;;;;5.90;2.45;;;19.70;68.90;;;;;;5068850;28;20076;-75
2023/08/05 11:30:50;;;;;;;5.00;2.50;;;19.70;69.00;;;;;;5049482;28;20144;-74
2023/08/05 11:33:19;;;;;;;6.13;2.80;;;19.70;69.10;;;;;;5077666;28;20144;-73
2023/08/05 11:35:48;;;;;;;4.97;2.95;;;19.70;69.50;;;;;;5071246;28;20061;-74
2023/08/05 11:38:17;;;;;;;7.03;3.57;;;19.60;69.90;;;;;;5053460;28;20124;-74
2023/08/05 11:40:46;;;;;;;11.68;5.57;;;19.70;70.10;;;;;;5090790;28;20064;-72
2023/08/05 11:43:14;;;;;;;7.63;4.70;;;19.70;69.90;;;;;;5068834;28;20124;-73
2023/08/05 11:45:42;;;;;;;6.55;4.50;;;19.70;70.00;;;;;;5069324;28;20053;-73
2023/08/05 11:48:19;;;;;;;7.30;4.93;;;19.50;70.40;;;;;;5054342;28;20041;-73
2023/08/05 11:50:46;;;;;;;10.33;5.80;;;19.50;70.90;;;;;;5051900;28;20044;-73
2023/08/05 11:53:14;;;;;;;9.00;5.80;;;19.50;71.10;;;;;;5068958;28;20144;-75
2023/08/05 11:55:42;;;;;;;8.90;5.60;;;19.50;71.40;;;;;;5051882;28;20060;-73
2023/08/05 11:58:10;;;;;;;7.47;4.78;;;19.50;71.80;;;;;;5035911;28;20049;-73
2023/08/05 12:00:37;;;;;;;8.93;5.68;;;19.50;72.20;;;;;;5049206;28;20060;-72
2023/08/05 12:03:05;;;;;;;9.60;6.10;;;19.50;72.50;;;;;;5047867;28;20064;-72
2023/08/05 12:05:33;;;;;;;9.05;6.35;;;19.50;72.80;;;;;;5064610;28;21087;-72
2023/08/05 12:08:01;;;;;;;9.40;5.95;;;19.50;73.10;;;;;;5069741;28;20049;-72
2023/08/05 12:10:29;;;;;;;10.20;6.90;;;19.50;73.20;;;;;;5068973;28;20846;-72
2023/08/05 12:12:57;;;;;;;10.82;6.50;;;19.50;73.30;;;;;;5069539;28;20136;-72
2023/08/05 12:15:26;;;;;;;9.50;5.70;;;19.50;72.70;;;;;;5069994;28;20128;-72
2023/08/05 12:17:55;;;;;;;10.77;6.85;;;19.50;72.60;;;;;;5067652;28;20049;-72
2023/08/05 12:20:24;;;;;;;9.40;7.05;;;19.50;71.80;;;;;;5084712;28;20068;-72
2023/08/05 12:22:54;;;;;;;10.05;7.15;;;19.50;71.80;;;;;;5048560;28;20834;-72
2023/08/05 12:25:21;;;;;;;11.05;7.43;;;19.50;72.00;;;;;;5070184;28;20182;-72
2023/08/05 12:27:48;;;;;;;11.03;7.87;;;19.50;72.20;;;;;;5045501;28;20124;-72
2023/08/05 12:30:16;;;;;;;10.93;7.70;;;19.50;72.50;;;;;;5050089;28;20041;-72
2023/08/05 12:32:43;;;;;;;11.38;7.70;;;19.50;72.90;;;;;;5068468;28;20045;-72
2023/08/05 12:35:11;;;;;;;13.52;8.02;;;19.60;72.80;;;;;;5068829;28;20084;-72
2023/08/05 12:37:39;;;;;;;12.07;8.40;;;19.60;72.90;;;;;;5067903;28;20188;-73
2023/08/05 12:40:10;;;;;;;12.77;8.77;;;19.70;72.70;;;;;;5082380;28;20048;-72
2023/08/05 12:42:37;;;;;;;13.73;9.23;;;19.70;72.40;;;;;;5047334;28;20570;-72
2023/08/05 12:45:06;;;;;;;13.25;9.27;;;19.70;72.50;;;;;;5051361;28;20053;-72
2023/08/05 12:47:33;;;;;;;14.20;9.05;;;19.70;72.20;;;;;;5051680;28;20056;-72
2023/08/05 12:50:01;;;;;;;12.18;8.57;;;19.70;71.50;;;;;;5051277;28;20049;-72